Time;durP1;ratioP1;P1;durP2;ratioP2;P2;SDS_P1;SDS_P2;PMS_P1;PMS_P2;Temp;Humidity;BMP_temperature;BMP_pressure;BME280_temperature;BME280_humidity;BME280_pressure;Samples;Min_cycle;Max_cycle;Signal;HPM_P1;HPM_P2
2023/04/18 00:01:22;;;;;;;13.90;9.00;;;5.60;99.90;;;;;;5093062;27;20115;-53
2023/04/18 00:03:50;;;;;;;18.52;10.93;;;5.60;99.90;;;;;;5093803;27;20293;-51
2023/04/18 00:06:16;;;;;;;14.55;9.45;;;5.80;99.90;;;;;;5092932;27;20085;-53
2023/04/18 00:08:42;;;;;;;15.05;9.88;;;;;;;;;;5096444;27;20158;-50
2023/04/18 00:11:09;;;;;;;17.88;9.95;;;;;;;;;;5073962;27;20050;-53
2023/04/18 00:13:34;;;;;;;19.92;10.13;;;5.80;99.90;;;;;;5092758;27;20040;-53
2023/04/18 00:16:01;;;;;;;17.60;9.98;;;;;;;;;;5075110;27;20471;-49
2023/04/18 00:18:27;;;;;;;19.10;10.48;;;6.00;99.90;;;;;;5093473;27;20035;-54
2023/04/18 00:20:53;;;;;;;16.92;9.75;;;6.10;99.90;;;;;;5092684;27;20043;-52
2023/04/18 00:23:21;;;;;;;13.77;9.38;;;;;;;;;;5092943;28;20039;-52
2023/04/18 00:25:49;;;;;;;14.93;8.55;;;5.90;99.90;;;;;;5092337;27;20079;-53
2023/04/18 00:28:15;;;;;;;16.88;11.13;;;;;;;;;;5093015;28;20047;-53
2023/04/18 00:30:41;;;;;;;15.43;9.95;;;6.30;99.90;;;;;;5092232;27;20884;-53
2023/04/18 00:33:07;;;;;;;15.63;9.55;;;6.50;99.90;;;;;;5092738;28;20116;-53
2023/04/18 00:35:33;;;;;;;14.95;8.82;;;6.50;99.90;;;;;;5073162;28;20432;-53
2023/04/18 00:37:59;;;;;;;12.38;9.30;;;;;;;;;;5094660;28;20118;-55
2023/04/18 00:40:25;;;;;;;15.90;9.80;;;;;;;;;;5092996;28;20108;-54
2023/04/18 00:42:51;;;;;;;18.55;9.73;;;6.60;99.90;;;;;;5075234;28;20130;-53
2023/04/18 00:45:17;;;;;;;18.00;9.00;;;;;;;;;;5093034;28;20123;-53
2023/04/18 00:47:43;;;;;;;13.65;9.27;;;6.60;99.90;;;;;;5092167;28;20066;-54
2023/04/18 00:50:09;;;;;;;17.67;11.20;;;6.30;99.90;;;;;;5074645;28;20052;-53
2023/04/18 00:52:35;;;;;;;17.30;12.25;;;6.40;99.90;;;;;;5073267;28;20052;-55
2023/04/18 00:55:05;;;;;;;21.02;10.88;;;6.30;99.90;;;;;;5071140;28;20042;-54
2023/04/18 00:57:30;;;;;;;21.65;10.85;;;6.30;99.90;;;;;;5092861;28;20059;-54
2023/04/18 00:59:58;;;;;;;16.67;10.45;;;6.20;99.90;;;;;;5092668;28;20130;-53
2023/04/18 01:02:26;;;;;;;20.83;11.35;;;6.40;99.90;;;;;;5092976;28;20114;-55
2023/04/18 01:04:51;;;;;;;18.65;11.32;;;6.30;99.90;;;;;;5093311;28;20042;-53
2023/04/18 01:07:17;;;;;;;15.23;9.85;;;6.20;99.90;;;;;;5093674;28;20043;-53
2023/04/18 01:09:43;;;;;;;17.67;9.98;;;;;;;;;;5094648;28;20746;-54
2023/04/18 01:12:09;;;;;;;12.65;8.95;;;6.20;99.90;;;;;;5093552;28;20581;-54
2023/04/18 01:14:35;;;;;;;12.90;8.88;;;6.30;99.90;;;;;;5093181;28;20047;-55
2023/04/18 01:17:01;;;;;;;15.75;9.60;;;;;;;;;;5093752;28;20126;-53
2023/04/18 01:19:27;;;;;;;16.55;10.18;;;6.30;99.90;;;;;;5093726;28;20083;-54
2023/04/18 01:21:53;;;;;;;12.70;9.77;;;6.20;99.90;;;;;;5055149;28;20074;-52
2023/04/18 01:24:19;;;;;;;14.90;8.63;;;;;;;;;;5092308;28;20127;-53
2023/04/18 01:26:48;;;;;;;15.20;9.93;;;5.90;99.90;;;;;;5093773;28;20471;-51
2023/04/18 01:29:15;;;;;;;12.93;9.75;;;;;;;;;;5092603;28;20159;-54
2023/04/18 01:31:41;;;;;;;17.48;10.38;;;;;;;;;;5092773;28;20579;-54
2023/04/18 01:34:07;;;;;;;15.23;10.45;;;;;;;;;;5092588;28;20043;-54
2023/04/18 01:36:34;;;;;;;19.27;10.45;;;6.10;99.90;;;;;;5092386;28;20487;-54
2023/04/18 01:39:00;;;;;;;17.17;10.10;;;6.00;99.90;;;;;;5093668;28;20051;-51
2023/04/18 01:41:28;;;;;;;16.05;10.77;;;;;;;;;;5092608;28;20028;-53
2023/04/18 01:43:54;;;;;;;15.23;9.18;;;;;;;;;;5093424;28;20062;-53
2023/04/18 01:46:20;;;;;;;15.45;10.27;;;6.10;99.90;;;;;;5093374;27;20035;-52
2023/04/18 01:48:46;;;;;;;16.13;9.48;;;;;;;;;;5095630;27;20062;-51
2023/04/18 01:51:12;;;;;;;13.40;8.30;;;;;;;;;;5095822;27;20036;-48
2023/04/18 01:53:38;;;;;;;15.07;9.10;;;6.20;99.90;;;;;;5078117;28;20043;-52
2023/04/18 01:56:04;;;;;;;11.80;8.98;;;;;;;;;;5095005;27;20067;-54
2023/04/18 01:58:30;;;;;;;12.32;8.00;;;6.10;99.90;;;;;;5095720;27;20708;-51
2023/04/18 02:00:56;;;;;;;15.30;9.10;;;;;;;;;;5096082;27;20044;-51
2023/04/18 02:03:23;;;;;;;14.60;8.70;;;;;;;;;;5096881;27;20457;-53
2023/04/18 02:05:49;;;;;;;13.32;7.20;;;;;;;;;;5077999;27;20039;-54
2023/04/18 02:08:15;;;;;;;12.48;7.68;;;;;;;;;;5095416;27;20084;-53
2023/04/18 02:10:41;;;;;;;15.20;9.05;;;;;;;;;;5096181;27;20048;-52
2023/04/18 02:13:08;;;;;;;13.05;8.43;;;;;;;;;;5094703;27;20054;-51
2023/04/18 02:15:34;;;;;;;13.57;8.68;;;;;;;;;;5094541;27;20077;-52
2023/04/18 02:18:00;;;;;;;11.68;8.20;;;;;;;;;;5096264;28;20043;-51
2023/04/18 02:20:27;;;;;;;13.95;8.43;;;5.70;99.90;;;;;;5094987;27;20127;-52
2023/04/18 02:22:54;;;;;;;13.63;6.85;;;;;;;;;;5077305;27;20796;-52
2023/04/18 02:25:22;;;;;;;11.05;7.97;;;;;;;;;;5096868;27;20519;-52
2023/04/18 02:27:48;;;;;;;14.60;7.28;;;;;;;;;;5095961;28;20047;-53
2023/04/18 02:30:15;;;;;;;15.55;9.05;;;;;;;;;;5095297;27;20380;-52
2023/04/18 02:32:41;;;;;;;12.57;7.22;;;;;;;;;;5096323;27;20487;-51
2023/04/18 02:35:07;;;;;;;12.32;8.27;;;5.50;99.90;;;;;;5096615;27;20115;-49
2023/04/18 02:37:33;;;;;;;11.25;7.43;;;;;;;;;;5096835;27;20082;-52
2023/04/18 02:39:59;;;;;;;10.77;6.82;;;;;;;;;;5096964;27;20083;-53
2023/04/18 02:42:25;;;;;;;11.63;7.65;;;5.70;99.90;;;;;;5095158;27;20054;-50
2023/04/18 02:44:51;;;;;;;10.63;7.25;;;;;;;;;;5096331;27;20040;-51
2023/04/18 02:47:16;;;;;;;12.13;6.53;;;5.90;99.90;;;;;;5095615;27;20534;-53
2023/04/18 02:49:42;;;;;;;10.93;6.28;;;5.60;99.90;;;;;;5094137;27;20032;-53
2023/04/18 02:52:08;;;;;;;10.73;7.40;;;;;;;;;;5094925;27;20381;-55
2023/04/18 02:54:34;;;;;;;10.43;7.18;;;;;;;;;;5094930;27;20411;-48
2023/04/18 02:57:00;;;;;;;10.57;6.63;;;5.80;99.90;;;;;;5095104;27;20059;-53
2023/04/18 02:59:26;;;;;;;13.35;7.05;;;5.80;99.90;;;;;;5094393;27;20302;-53
2023/04/18 03:01:52;;;;;;;11.35;7.63;;;;;;;;;;5094647;27;20687;-51
2023/04/18 03:04:17;;;;;;;10.20;5.97;;;6.00;99.90;;;;;;5094708;27;20134;-50
2023/04/18 03:06:43;;;;;;;8.90;5.47;;;;;;;;;;5093192;27;20150;-53
2023/04/18 03:09:09;;;;;;;10.15;6.72;;;6.00;99.90;;;;;;5077166;28;20198;-50
2023/04/18 03:11:35;;;;;;;9.80;6.50;;;6.10;99.90;;;;;;5076456;28;20044;-52
2023/04/18 03:14:01;;;;;;;11.52;6.68;;;;;;;;;;5094968;28;20036;-53
2023/04/18 03:16:27;;;;;;;9.07;5.63;;;;;;;;;;5075148;28;20043;-52
2023/04/18 03:18:53;;;;;;;9.80;6.10;;;6.00;99.90;;;;;;5094095;27;20104;-54
2023/04/18 03:21:18;;;;;;;9.07;5.78;;;6.10;99.90;;;;;;5076133;28;20514;-54
2023/04/18 03:23:44;;;;;;;9.32;6.63;;;6.20;99.90;;;;;;5095419;27;20047;-53
2023/04/18 03:26:12;;;;;;;10.25;6.47;;;6.30;99.90;;;;;;5093877;27;20035;-49
2023/04/18 03:28:39;;;;;;;12.30;6.28;;;6.20;99.90;;;;;;5093155;27;20059;-50
2023/04/18 03:31:04;;;;;;;10.85;6.20;;;6.20;99.90;;;;;;5093240;27;20048;-52
2023/04/18 03:33:31;;;;;;;11.02;6.95;;;;;;;;;;5094134;27;20216;-53
2023/04/18 03:35:56;;;;;;;12.48;6.57;;;6.30;99.90;;;;;;5094106;27;20290;-48
2023/04/18 03:38:22;;;;;;;8.98;5.45;;;6.30;99.90;;;;;;5095190;27;20036;-51
2023/04/18 03:40:48;;;;;;;10.60;7.18;;;;;;;;;;5095967;27;20035;-54
2023/04/18 03:43:14;;;;;;;10.88;6.20;;;6.30;99.90;;;;;;5095297;27;20043;-48
2023/04/18 03:45:40;;;;;;;10.65;6.75;;;;;;;;;;5095156;27;20136;-53
2023/04/18 03:48:06;;;;;;;10.25;6.75;;;6.50;99.90;;;;;;5094216;28;21332;-50
2023/04/18 03:50:32;;;;;;;12.77;6.43;;;6.20;99.90;;;;;;5095042;27;20790;-54
2023/04/18 03:52:58;;;;;;;13.98;5.50;;;6.30;99.90;;;;;;5094946;27;20047;-50
2023/04/18 03:55:25;;;;;;;12.27;6.95;;;6.40;99.90;;;;;;5053955;27;20039;-50
2023/04/18 03:57:51;;;;;;;10.43;6.10;;;6.20;99.90;;;;;;5075655;28;20141;-49
2023/04/18 04:00:17;;;;;;;11.40;6.75;;;6.40;99.90;;;;;;5094577;28;20941;-51
2023/04/18 04:02:42;;;;;;;9.13;5.05;;;6.40;99.90;;;;;;5094583;27;20099;-52
2023/04/18 04:05:09;;;;;;;9.68;6.70;;;;;;;;;;5093565;27;20047;-53
2023/04/18 04:07:35;;;;;;;9.30;6.57;;;6.50;99.90;;;;;;5075875;27;20630;-52
2023/04/18 04:10:01;;;;;;;10.15;6.25;;;;;;;;;;5093915;27;20151;-54
2023/04/18 04:12:27;;;;;;;10.82;6.60;;;;;;;;;;5093647;28;20040;-53
2023/04/18 04:14:53;;;;;;;8.75;5.63;;;6.60;99.90;;;;;;5092854;28;20049;-52
2023/04/18 04:17:19;;;;;;;10.77;6.95;;;;;;;;;;5093196;27;20084;-52
2023/04/18 04:19:45;;;;;;;10.10;5.40;;;;;;;;;;5094195;27;20040;-54
2023/04/18 04:22:11;;;;;;;11.30;6.40;;;;;;;;;;5093113;27;20047;-51
2023/04/18 04:24:38;;;;;;;8.60;5.45;;;6.60;99.90;;;;;;5095423;27;21181;-51
2023/04/18 04:27:04;;;;;;;10.38;6.32;;;;;;;;;;5093267;28;20092;-48
2023/04/18 04:29:30;;;;;;;10.65;7.18;;;6.60;99.90;;;;;;5093127;28;20031;-51
2023/04/18 04:31:58;;;;;;;10.45;6.40;;;;;;;;;;5074787;28;20365;-52
2023/04/18 04:34:23;;;;;;;10.25;6.60;;;6.50;99.90;;;;;;5094385;28;20432;-52
2023/04/18 04:36:50;;;;;;;10.65;6.90;;;;;;;;;;5093975;28;20097;-52
2023/04/18 04:39:18;;;;;;;12.18;6.50;;;6.80;99.90;;;;;;5075592;28;20036;-53
2023/04/18 04:41:46;;;;;;;8.85;3.83;;;;;;;;;;5092106;28;20071;-55
2023/04/18 04:44:16;;;;;;;10.82;6.50;;;;;;;;;;5093295;28;20121;-55
2023/04/18 04:46:43;;;;;;;12.27;6.38;;;6.70;99.90;;;;;;5092449;28;20056;-55
2023/04/18 04:49:10;;;;;;;11.52;6.55;;;6.80;99.90;;;;;;5093192;28;20043;-55
2023/04/18 04:51:36;;;;;;;14.95;7.45;;;;;;;;;;5076641;28;20036;-55
2023/04/18 04:54:03;;;;;;;10.43;6.60;;;6.80;99.90;;;;;;5094629;28;20407;-51
2023/04/18 04:56:29;;;;;;;9.00;6.07;;;;;;;;;;5092917;28;20043;-54
2023/04/18 04:58:55;;;;;;;9.82;6.25;;;;;;;;;;5093766;28;20496;-55
2023/04/18 05:01:21;;;;;;;12.68;7.55;;;6.80;99.90;;;;;;5093187;28;20048;-55
2023/04/18 05:03:48;;;;;;;12.05;6.85;;;6.80;99.90;;;;;;5095112;28;20047;-55
2023/04/18 05:06:19;;;;;;;13.68;7.72;;;;;;;;;;5093120;28;20075;-53
2023/04/18 05:08:48;;;;;;;9.90;6.15;;;7.10;99.90;;;;;;5094365;28;20048;-54
2023/04/18 05:11:15;;;;;;;10.65;6.22;;;6.90;99.90;;;;;;5094935;28;20254;-55
2023/04/18 05:13:41;;;;;;;11.05;7.35;;;7.00;99.90;;;;;;5092513;28;20191;-55
2023/04/18 05:16:06;;;;;;;10.80;6.95;;;7.00;99.90;;;;;;5075504;28;20396;-55
2023/04/18 05:18:33;;;;;;;9.90;7.20;;;6.90;99.90;;;;;;5075169;28;20541;-51
2023/04/18 05:20:59;;;;;;;13.27;7.50;;;7.00;99.90;;;;;;5095621;27;20126;-54
2023/04/18 05:23:24;;;;;;;11.80;7.93;;;6.90;99.90;;;;;;5096419;27;20225;-55
2023/04/18 05:25:50;;;;;;;13.30;7.85;;;6.80;99.90;;;;;;5095724;27;20484;-54
2023/04/18 05:28:16;;;;;;;12.10;7.55;;;7.00;99.90;;;;;;5096808;27;20039;-53
2023/04/18 05:30:42;;;;;;;13.38;7.35;;;;;;;;;;5097446;27;20058;-54
2023/04/18 05:33:08;;;;;;;10.95;7.05;;;7.10;99.90;;;;;;5095574;27;20054;-55
2023/04/18 05:35:33;;;;;;;18.30;8.93;;;7.00;99.90;;;;;;5096140;27;20043;-54
2023/04/18 05:37:59;;;;;;;13.15;7.35;;;7.20;99.90;;;;;;5095986;27;20149;-55
2023/04/18 05:40:28;;;;;;;13.88;8.70;;;7.10;99.90;;;;;;5097151;27;20050;-54
2023/04/18 05:42:54;;;;;;;12.98;9.07;;;7.10;99.90;;;;;;5096141;27;20483;-54
2023/04/18 05:45:20;;;;;;;13.85;8.45;;;7.20;99.90;;;;;;5095285;27;20047;-55
2023/04/18 05:47:46;;;;;;;10.50;6.70;;;7.20;99.90;;;;;;5096070;27;20046;-56
2023/04/18 05:50:12;;;;;;;12.90;7.90;;;7.30;99.90;;;;;;5095836;27;20062;-56
2023/04/18 05:52:38;;;;;;;10.48;5.75;;;;;;;;;;5095311;27;20058;-55
2023/04/18 05:55:04;;;;;;;12.23;8.57;;;7.40;99.90;;;;;;5095600;27;20665;-55
2023/04/18 05:57:30;;;;;;;13.95;9.05;;;7.40;99.90;;;;;;5077670;28;20844;-53
2023/04/18 05:59:56;;;;;;;12.50;8.52;;;7.60;99.90;;;;;;5097406;27;20044;-55
2023/04/18 06:02:22;;;;;;;11.40;7.75;;;7.60;99.90;;;;;;5096278;27;20035;-54
2023/04/18 06:04:48;;;;;;;14.07;8.32;;;7.70;99.90;;;;;;5095783;27;20047;-55
2023/04/18 06:07:14;;;;;;;13.82;8.40;;;7.80;99.90;;;;;;5095853;27;20077;-56
2023/04/18 06:09:40;;;;;;;13.05;8.48;;;8.30;99.90;;;;;;5063451;27;20126;-53
2023/04/18 06:12:05;;;;;;;13.48;8.05;;;8.70;99.90;;;;;;5076790;27;20541;-56
2023/04/18 06:14:31;;;;;;;12.13;8.00;;;9.00;99.90;;;;;;5077186;27;20093;-55
2023/04/18 06:16:57;;;;;;;11.05;7.07;;;9.90;99.90;;;;;;5094961;27;20077;-55
2023/04/18 06:19:23;;;;;;;11.00;7.65;;;11.00;99.90;;;;;;5096878;27;20054;-56
2023/04/18 06:21:49;;;;;;;12.35;7.35;;;11.90;99.90;;;;;;5096980;27;20040;-56
2023/04/18 06:24:15;;;;;;;13.10;7.32;;;12.30;99.90;;;;;;5096180;27;20044;-56
2023/04/18 06:26:41;;;;;;;13.57;6.95;;;12.00;99.90;;;;;;5095983;28;20054;-57
2023/04/18 06:29:06;;;;;;;10.52;7.10;;;11.40;99.90;;;;;;5097126;27;20128;-55
2023/04/18 06:31:32;;;;;;;11.10;6.60;;;12.00;99.90;;;;;;5094613;27;20054;-56
2023/04/18 06:33:58;;;;;;;10.95;6.57;;;12.60;99.90;;;;;;5094897;27;20093;-56
2023/04/18 06:36:23;;;;;;;8.00;5.40;;;13.10;99.90;;;;;;5095458;28;20043;-55
2023/04/18 06:38:49;;;;;;;10.40;6.53;;;13.80;99.90;;;;;;5098058;27;20071;-56
2023/04/18 06:41:15;;;;;;;12.40;6.72;;;14.20;99.90;;;;;;5078448;28;20040;-56
2023/04/18 06:43:41;;;;;;;16.70;8.02;;;14.40;99.90;;;;;;5095184;27;20047;-56
2023/04/18 06:46:07;;;;;;;11.85;7.25;;;14.90;99.90;;;;;;5095881;27;20550;-55
2023/04/18 06:48:33;;;;;;;9.48;5.85;;;16.20;99.90;;;;;;5095696;27;20039;-56
2023/04/18 06:50:58;;;;;;;9.30;5.28;;;15.20;99.90;;;;;;5095343;27;20047;-55
2023/04/18 06:53:24;;;;;;;12.95;6.20;;;15.50;99.90;;;;;;5094720;28;20399;-56
2023/04/18 06:55:50;;;;;;;12.48;6.45;;;15.50;99.90;;;;;;5094855;27;20495;-55
2023/04/18 06:58:16;;;;;;;8.57;5.97;;;16.00;99.90;;;;;;5096251;27;20054;-55
2023/04/18 07:00:42;;;;;;;9.48;6.35;;;16.00;99.90;;;;;;5095927;27;20083;-57
2023/04/18 07:03:11;;;;;;;8.43;5.30;;;16.10;99.90;;;;;;5076021;28;20082;-55
2023/04/18 07:05:38;;;;;;;10.32;5.60;;;16.10;99.90;;;;;;5094802;27;20051;-54
2023/04/18 07:08:04;;;;;;;11.30;4.97;;;16.30;99.90;;;;;;5094877;27;20044;-56
2023/04/18 07:10:30;;;;;;;6.53;4.18;;;16.40;99.90;;;;;;5095658;27;20719;-55
2023/04/18 07:12:56;;;;;;;12.15;5.93;;;16.60;99.90;;;;;;5096021;27;20050;-56
2023/04/18 07:15:21;;;;;;;11.05;6.28;;;16.50;99.90;;;;;;5094872;27;20076;-56
2023/04/18 07:17:47;;;;;;;8.90;6.15;;;16.50;99.90;;;;;;5077513;28;20040;-55
2023/04/18 07:20:13;;;;;;;8.70;5.97;;;16.30;99.90;;;;;;5075707;27;20031;-55
2023/04/18 07:22:40;;;;;;;8.45;5.78;;;16.90;99.90;;;;;;5095376;27;20051;-55
2023/04/18 07:25:06;;;;;;;8.63;5.95;;;17.00;99.90;;;;;;5093802;27;20079;-55
2023/04/18 07:27:35;;;;;;;9.05;5.30;;;17.10;99.90;;;;;;5094271;28;20508;-56
2023/04/18 07:30:01;;;;;;;8.50;6.22;;;16.70;99.90;;;;;;5094113;27;20496;-54
2023/04/18 07:32:27;;;;;;;9.40;5.50;;;16.50;99.90;;;;;;5094221;27;20670;-55
2023/04/18 07:34:52;;;;;;;13.05;6.35;;;16.00;99.90;;;;;;5094797;27;20043;-52
2023/04/18 07:37:20;;;;;;;10.70;5.82;;;15.80;99.90;;;;;;5095754;28;20055;-53
2023/04/18 07:39:46;;;;;;;11.40;6.32;;;15.30;99.90;;;;;;5095272;28;20123;-53
2023/04/18 07:42:12;;;;;;;11.20;5.45;;;15.00;99.90;;;;;;5095718;27;20093;-54
2023/04/18 07:44:38;;;;;;;12.57;6.43;;;15.10;99.90;;;;;;5093074;27;20845;-55
2023/04/18 07:47:08;;;;;;;9.80;6.50;;;15.20;99.90;;;;;;5095263;27;20039;-54
2023/04/18 07:49:34;;;;;;;9.80;6.60;;;15.10;99.90;;;;;;5095072;27;20040;-55
2023/04/18 07:52:00;;;;;;;10.35;6.75;;;15.20;99.90;;;;;;5095832;27;20468;-55
2023/04/18 07:54:26;;;;;;;11.45;6.05;;;14.80;99.90;;;;;;5095112;27;20040;-54
2023/04/18 07:56:52;;;;;;;10.68;6.72;;;14.60;99.90;;;;;;5094448;28;20059;-53
2023/04/18 07:59:17;;;;;;;10.35;6.75;;;14.40;99.90;;;;;;5094766;27;20097;-54
2023/04/18 08:01:43;;;;;;;11.40;6.35;;;14.60;99.90;;;;;;5095861;27;20051;-55
2023/04/18 08:04:09;;;;;;;11.27;7.10;;;14.80;99.90;;;;;;5075611;28;20035;-54
2023/04/18 08:06:35;;;;;;;11.80;6.40;;;14.40;99.90;;;;;;5094971;27;20055;-55
2023/04/18 08:09:04;;;;;;;10.52;6.53;;;14.10;99.90;;;;;;5095192;28;20069;-56
2023/04/18 08:11:33;;;;;;;10.65;6.55;;;13.60;99.90;;;;;;5078399;28;20051;-55
2023/04/18 08:13:59;;;;;;;9.82;6.97;;;13.70;99.90;;;;;;5075768;28;20043;-55
2023/04/18 08:16:25;;;;;;;11.45;6.15;;;13.80;99.90;;;;;;5093653;28;20084;-55
2023/04/18 08:18:51;;;;;;;11.90;7.93;;;13.90;99.90;;;;;;5094641;27;20031;-55
2023/04/18 08:21:18;;;;;;;14.50;7.45;;;13.80;99.90;;;;;;5093705;27;20126;-54
2023/04/18 08:23:43;;;;;;;10.27;7.15;;;13.70;99.90;;;;;;5092923;27;20507;-55
2023/04/18 08:26:09;;;;;;;11.35;5.97;;;13.60;99.90;;;;;;5094830;27;20071;-56
2023/04/18 08:28:35;;;;;;;17.77;7.90;;;13.70;99.90;;;;;;5093032;27;20112;-54
2023/04/18 08:31:00;;;;;;;12.32;6.68;;;13.90;99.90;;;;;;5093885;27;20046;-55
2023/04/18 08:33:27;;;;;;;10.25;7.15;;;14.30;99.90;;;;;;5093079;28;20243;-56
2023/04/18 08:35:53;;;;;;;12.23;6.80;;;14.40;99.90;;;;;;5094364;27;20497;-55
2023/04/18 08:38:19;;;;;;;12.95;7.07;;;14.40;99.90;;;;;;5074774;28;20048;-55
2023/04/18 08:40:45;;;;;;;10.65;6.47;;;13.90;99.90;;;;;;5095572;27;20293;-53
2023/04/18 08:43:13;;;;;;;12.68;6.93;;;13.60;99.90;;;;;;5092791;28;20038;-55
2023/04/18 08:45:40;;;;;;;12.40;6.90;;;13.60;99.90;;;;;;5094138;28;20969;-55
2023/04/18 08:48:10;;;;;;;12.43;6.82;;;13.70;99.90;;;;;;5093535;28;20047;-56
2023/04/18 08:50:35;;;;;;;10.57;6.97;;;13.80;99.90;;;;;;5060903;28;20050;-54
2023/04/18 08:53:01;;;;;;;14.50;6.88;;;13.70;99.90;;;;;;5093364;28;20040;-54
2023/04/18 08:55:27;;;;;;;14.77;6.45;;;13.90;99.90;;;;;;5097474;27;20447;-55
2023/04/18 08:57:54;;;;;;;9.57;6.60;;;13.60;99.90;;;;;;5099906;27;20052;-55
2023/04/18 09:00:21;;;;;;;9.20;6.40;;;13.30;99.90;;;;;;5100023;27;20043;-55
2023/04/18 09:02:48;;;;;;;10.05;6.88;;;13.30;99.90;;;;;;5101299;27;20031;-54
2023/04/18 09:05:18;;;;;;;9.80;6.70;;;13.50;99.90;;;;;;5100875;27;20043;-55
2023/04/18 09:07:45;;;;;;;9.32;4.88;;;13.40;99.90;;;;;;5100771;27;20122;-55
2023/04/18 09:10:12;;;;;;;15.32;6.38;;;13.40;99.90;;;;;;5101770;27;20067;-55
2023/04/18 09:12:54;;;;;;;9.50;6.38;;;13.10;99.90;;;;;;5101061;27;20036;-55
2023/04/18 09:15:22;;;;;;;11.75;6.30;;;13.00;99.90;;;;;;5101037;27;20035;-55
2023/04/18 09:17:52;;;;;;;10.55;6.40;;;13.10;99.90;;;;;;5084370;28;20046;-54
2023/04/18 09:20:39;;;;;;;13.07;6.55;;;13.30;99.90;;;;;;5100895;27;20547;-55
2023/04/18 09:23:23;;;;;;;10.68;5.68;;;13.60;99.90;;;;;;5100240;27;20047;-55
2023/04/18 09:25:51;;;;;;;9.70;5.80;;;13.90;99.90;;;;;;5099853;27;20039;-56
2023/04/18 09:28:28;;;;;;;10.57;6.47;;;14.30;99.90;;;;;;5099651;27;20412;-56
2023/04/18 09:31:10;;;;;;;9.90;6.68;;;14.30;99.90;;;;;;5099141;27;20411;-55
2023/04/18 09:33:37;;;;;;;10.43;6.07;;;14.30;99.90;;;;;;5098903;27;20067;-56
2023/04/18 09:36:20;;;;;;;9.90;6.10;;;13.90;99.90;;;;;;5100810;27;20435;-55
2023/04/18 09:38:47;;;;;;;14.85;7.07;;;13.50;99.90;;;;;;5100151;27;20047;-54
2023/04/18 09:41:17;;;;;;;9.60;6.18;;;13.20;99.90;;;;;;5100728;27;20040;-55
2023/04/18 09:43:44;;;;;;;12.63;5.72;;;12.80;99.90;;;;;;5099700;27;20073;-55
2023/04/18 09:46:11;;;;;;;11.68;6.45;;;12.60;99.90;;;;;;5098613;27;20050;-55
2023/04/18 09:48:38;;;;;;;10.45;5.65;;;12.90;99.90;;;;;;5080705;28;20079;-55
2023/04/18 09:51:09;;;;;;;16.33;6.65;;;12.60;99.90;;;;;;5100177;27;20449;-55
2023/04/18 09:53:39;;;;;;;11.82;5.53;;;12.70;99.90;;;;;;5099749;27;20055;-54
2023/04/18 09:56:15;;;;;;;16.25;6.15;;;14.20;99.90;;;;;;5099438;27;20043;-55
2023/04/18 09:58:42;;;;;;;12.25;6.88;;;12.60;99.90;;;;;;5099944;27;20083;-55
2023/04/18 10:01:09;;;;;;;9.50;6.45;;;12.50;99.90;;;;;;5099803;27;20090;-56
2023/04/18 10:03:44;;;;;;;11.02;6.53;;;12.70;99.90;;;;;;5081242;28;20078;-56
2023/04/18 10:06:10;;;;;;;9.50;6.65;;;12.70;99.90;;;;;;5079014;28;20143;-55
2023/04/18 10:08:37;;;;;;;10.13;6.63;;;12.80;99.90;;;;;;5094532;27;20134;-56
2023/04/18 10:11:03;;;;;;;13.25;6.55;;;12.80;99.90;;;;;;5095561;27;20042;-56
2023/04/18 10:13:30;;;;;;;11.20;6.22;;;12.80;99.90;;;;;;5094732;27;20039;-55
2023/04/18 10:15:56;;;;;;;11.02;6.07;;;13.30;99.90;;;;;;5096165;27;20126;-56
2023/04/18 10:18:23;;;;;;;10.43;6.38;;;13.20;99.90;;;;;;5095348;27;20191;-56
2023/04/18 10:20:49;;;;;;;7.60;5.38;;;13.20;99.90;;;;;;5095413;27;20132;-56
2023/04/18 10:23:34;;;;;;;10.43;6.10;;;13.10;99.90;;;;;;5096501;27;20146;-57
2023/04/18 10:26:01;;;;;;;9.95;6.22;;;13.30;99.90;;;;;;5096222;27;20131;-54
2023/04/18 10:28:53;;;;;;;10.00;7.05;;;13.40;99.90;;;;;;5096542;27;20051;-56
2023/04/18 10:31:25;;;;;;;10.30;6.00;;;13.60;99.90;;;;;;5097192;27;20059;-55
2023/04/18 10:33:59;;;;;;;11.13;6.82;;;13.80;99.90;;;;;;5096279;27;20050;-56
2023/04/18 10:36:26;;;;;;;9.25;5.55;;;13.40;99.90;;;;;;5096434;27;20437;-56
2023/04/18 10:39:02;;;;;;;9.38;4.90;;;13.40;99.90;;;;;;5095852;27;20044;-55
2023/04/18 10:41:32;;;;;;;10.45;6.22;;;13.50;99.90;;;;;;5096980;27;20042;-56
2023/04/18 10:44:13;;;;;;;10.55;6.18;;;13.40;99.90;;;;;;5096191;27;20165;-57
2023/04/18 10:47:08;;;;;;;7.35;4.15;;;13.70;99.90;;;;;;5076430;28;20205;-56
2023/04/18 10:49:36;;;;;;;9.32;5.30;;;13.80;99.90;;;;;;5094857;27;20088;-57
2023/04/18 10:52:04;;;;;;;8.38;5.38;;;13.90;99.90;;;;;;5094709;27;20040;-57
2023/04/18 10:54:50;;;;;;;7.72;5.20;;;13.70;99.90;;;;;;5075603;27;20305;-57
2023/04/18 10:57:16;;;;;;;7.82;4.38;;;13.90;99.90;;;;;;5075442;28;20965;-56
2023/04/18 10:59:49;;;;;;;9.57;5.07;;;14.00;99.90;;;;;;5076749;28;20180;-57
2023/04/18 11:02:31;;;;;;;8.85;5.30;;;14.10;99.90;;;;;;5095395;27;20058;-56
2023/04/18 11:05:00;;;;;;;7.38;4.65;;;13.90;99.90;;;;;;5093670;28;20530;-57
2023/04/18 11:07:40;;;;;;;8.43;4.93;;;13.70;99.90;;;;;;5093354;27;20292;-56
2023/04/18 11:10:08;;;;;;;6.93;5.20;;;13.60;99.90;;;;;;5095702;27;20047;-56
2023/04/18 11:12:36;;;;;;;8.65;4.13;;;13.60;99.90;;;;;;5094801;27;20048;-54
2023/04/18 11:15:08;;;;;;;7.68;4.45;;;14.00;99.90;;;;;;5074933;28;20058;-55
2023/04/18 11:17:34;;;;;;;;;;;14.00;99.90;;;;;;5094265;27;20051;-55
2023/04/18 11:20:18;;;;;;;9.50;5.07;;;14.00;99.90;;;;;;5093332;27;20571;-56
2023/04/18 11:22:50;;;;;;;9.30;5.72;;;14.00;99.90;;;;;;5076611;27;20041;-56
2023/04/18 11:25:18;;;;;;;7.40;5.25;;;13.60;99.90;;;;;;5093145;27;20750;-56
2023/04/18 11:27:46;;;;;;;10.45;4.75;;;14.00;99.90;;;;;;5094737;27;20515;-56
2023/04/18 11:30:13;;;;;;;8.40;5.05;;;14.10;99.90;;;;;;5093633;27;20058;-56
2023/04/18 11:32:39;;;;;;;6.13;3.53;;;14.20;99.90;;;;;;5075311;27;20052;-56
2023/04/18 11:35:08;;;;;;;7.30;4.88;;;14.10;99.90;;;;;;5093550;27;20051;-57
2023/04/18 11:37:35;;;;;;;6.82;3.90;;;14.10;99.90;;;;;;5093836;27;20099;-54
2023/04/18 11:40:01;;;;;;;7.22;4.63;;;14.10;99.90;;;;;;5076946;27;20032;-56
2023/04/18 11:42:27;;;;;;;7.28;4.57;;;14.10;99.90;;;;;;5095116;27;20039;-56
2023/04/18 11:44:53;;;;;;;8.45;4.97;;;14.10;99.90;;;;;;5094250;27;20179;-56
2023/04/18 11:47:29;;;;;;;11.48;5.90;;;14.10;99.90;;;;;;5094157;27;20139;-55
2023/04/18 11:50:03;;;;;;;7.65;5.18;;;14.20;99.90;;;;;;5059083;27;20572;-54
2023/04/18 11:52:30;;;;;;;11.88;5.57;;;14.50;99.90;;;;;;5075835;28;20864;-53
2023/04/18 11:55:13;;;;;;;6.82;4.35;;;14.50;99.90;;;;;;5094013;27;20082;-55
2023/04/18 11:57:39;;;;;;;7.70;4.57;;;14.30;99.90;;;;;;5095241;27;20058;-55
2023/04/18 12:00:08;;;;;;;10.05;5.65;;;14.50;99.90;;;;;;5095260;27;20043;-54
2023/04/18 12:02:44;;;;;;;8.50;4.72;;;14.40;99.90;;;;;;5059909;27;20096;-56
2023/04/18 12:05:10;;;;;;;8.60;3.58;;;14.30;99.90;;;;;;5095013;27;20047;-56
2023/04/18 12:07:43;;;;;;;8.38;4.07;;;14.20;99.90;;;;;;5095140;27;20511;-56
2023/04/18 12:10:18;;;;;;;6.57;4.03;;;14.20;99.90;;;;;;5095210;27;20459;-54
2023/04/18 12:12:51;;;;;;;6.65;3.90;;;14.10;99.90;;;;;;5075437;28;20100;-55
2023/04/18 12:15:17;;;;;;;5.95;4.40;;;14.10;99.90;;;;;;5094237;27;20043;-56
2023/04/18 12:17:45;;;;;;;7.03;4.15;;;14.10;99.90;;;;;;5094584;27;20050;-55
2023/04/18 12:20:12;;;;;;;7.30;3.83;;;14.10;99.90;;;;;;5093754;28;20031;-56
2023/04/18 12:22:45;;;;;;;6.25;3.55;;;14.10;99.90;;;;;;5092910;28;20598;-55
2023/04/18 12:25:22;;;;;;;7.35;4.20;;;14.30;99.90;;;;;;5093512;27;20134;-55
2023/04/18 12:27:52;;;;;;;6.07;3.50;;;14.20;99.90;;;;;;5093306;27;20496;-56
2023/04/18 12:30:20;;;;;;;7.43;3.83;;;14.30;99.90;;;;;;5091961;28;20055;-56
2023/04/18 12:32:48;;;;;;;8.15;4.22;;;14.20;99.90;;;;;;5075744;28;20488;-56
2023/04/18 12:35:14;;;;;;;8.40;4.15;;;14.20;99.90;;;;;;5092885;27;20032;-56
2023/04/18 12:37:40;;;;;;;6.10;3.35;;;14.30;99.90;;;;;;5094227;27;20054;-55
2023/04/18 12:40:07;;;;;;;6.82;2.28;;;16.20;99.90;;;;;;5092686;28;20580;-54
2023/04/18 12:42:33;;;;;;;4.40;2.55;;;14.50;99.90;;;;;;5095625;28;20104;-55
2023/04/18 12:45:06;;;;;;;6.68;3.08;;;14.30;99.90;;;;;;5092021;28;20126;-55
2023/04/18 12:47:33;;;;;;;4.80;2.90;;;14.30;99.90;;;;;;5093969;28;20114;-55
2023/04/18 12:49:59;;;;;;;5.38;2.58;;;14.10;99.90;;;;;;5092724;28;20039;-53
2023/04/18 12:52:25;;;;;;;5.15;3.10;;;13.80;99.90;;;;;;5092270;28;20047;-55
2023/04/18 12:54:51;;;;;;;8.32;3.40;;;14.10;99.90;;;;;;5092441;28;20054;-55
2023/04/18 12:57:17;;;;;;;8.57;3.45;;;13.70;99.90;;;;;;5092980;28;20051;-54
2023/04/18 12:59:43;;;;;;;4.30;2.70;;;13.60;99.90;;;;;;5093102;28;20067;-56
2023/04/18 13:02:09;;;;;;;5.82;3.17;;;13.20;99.90;;;;;;5091726;28;20039;-56
2023/04/18 13:04:34;;;;;;;6.30;3.38;;;13.80;99.90;;;;;;5091890;28;20055;-55